Time;durP1;ratioP1;P1;durP2;ratioP2;P2;SDS_P1;SDS_P2;PMS_P1;PMS_P2;Temp;Humidity;BMP_temperature;BMP_pressure;BME280_temperature;BME280_humidity;BME280_pressure;Samples;Min_cycle;Max_cycle;Signal;HPM_P1;HPM_P2
2021/04/21 00:00:56;;;;;;;5.82;4.00;;;13.40;99.90;;;;;;5013204;28;20037;-89
2021/04/21 00:03:23;;;;;;;4.28;3.88;;;12.90;99.90;;;;;;5016801;28;20113;-90
2021/04/21 00:05:51;;;;;;;4.82;3.90;;;13.10;99.90;;;;;;5013381;28;20041;-89
2021/04/21 00:08:18;;;;;;;5.82;4.10;;;13.30;99.90;;;;;;5012316;28;20386;-89
2021/04/21 00:10:44;;;;;;;5.00;4.55;;;13.40;99.90;;;;;;5012445;28;20033;-89
2021/04/21 00:13:11;;;;;;;4.85;4.10;;;13.40;99.90;;;;;;5013259;28;20434;-90
2021/04/21 00:15:37;;;;;;;4.60;4.10;;;13.30;99.90;;;;;;5012457;28;20022;-89
2021/04/21 00:18:06;;;;;;;6.40;4.05;;;13.20;99.90;;;;;;5012382;28;20040;-89
2021/04/21 00:20:33;;;;;;;4.10;3.70;;;13.40;99.90;;;;;;5024387;28;20025;-90
2021/04/21 00:23:01;;;;;;;4.93;3.83;;;13.20;99.90;;;;;;5013895;28;20038;-90
2021/04/21 00:25:30;;;;;;;4.47;4.07;;;13.10;99.90;;;;;;5012087;28;20026;-89
2021/04/21 00:27:56;;;;;;;5.22;4.20;;;13.30;99.90;;;;;;5013743;28;20056;-89
2021/04/21 00:30:27;;;;;;;4.68;4.28;;;13.20;99.90;;;;;;5013535;28;20025;-89
2021/04/21 00:32:54;;;;;;;4.47;3.90;;;13.10;99.90;;;;;;5010549;28;20418;-90
2021/04/21 00:35:34;;;;;;;4.50;3.85;;;12.80;99.90;;;;;;5011197;28;20022;-89
2021/04/21 00:38:06;;;;;;;4.07;3.75;;;12.60;99.90;;;;;;5013619;28;20072;-90
2021/04/21 00:40:44;;;;;;;4.07;3.60;;;12.60;99.90;;;;;;5016244;28;20498;-89
2021/04/21 00:43:31;;;;;;;4.22;3.58;;;12.70;99.90;;;;;;5018184;28;20401;-89
2021/04/21 00:46:01;;;;;;;5.47;4.07;;;12.70;99.90;;;;;;5001673;28;20076;-89
2021/04/21 00:48:45;;;;;;;4.28;3.88;;;12.70;99.90;;;;;;5002020;28;20030;-88
2021/04/21 00:51:15;;;;;;;4.85;4.10;;;12.90;99.90;;;;;;5024865;28;20030;-90
2021/04/21 00:53:44;;;;;;;5.47;4.10;;;12.80;99.90;;;;;;5012887;28;20048;-89
2021/04/21 00:56:31;;;;;;;4.90;4.00;;;13.10;99.90;;;;;;5014784;28;20033;-89
2021/04/21 00:59:29;;;;;;;6.38;4.55;;;12.70;99.90;;;;;;5014465;28;20069;-89
2021/04/21 01:01:57;;;;;;;5.10;4.40;;;12.40;99.90;;;;;;5014144;28;20038;-89
2021/04/21 01:04:23;;;;;;;5.10;3.95;;;12.90;99.90;;;;;;5014011;28;20026;-89
2021/04/21 01:06:52;;;;;;;6.10;4.38;;;13.10;99.90;;;;;;5012997;28;20085;-90
2021/04/21 01:09:19;;;;;;;6.45;4.30;;;12.80;99.90;;;;;;5011273;28;20029;-90
2021/04/21 01:11:49;;;;;;;4.47;4.05;;;13.10;99.90;;;;;;5011982;28;20030;-89
2021/04/21 01:14:24;;;;;;;7.25;4.32;;;13.20;99.90;;;;;;5010569;28;20022;-89
2021/04/21 01:16:55;;;;;;;4.65;4.20;;;12.50;99.90;;;;;;5013039;28;20069;-89
2021/04/21 01:19:30;;;;;;;5.55;4.50;;;12.70;99.90;;;;;;5015224;28;20121;-90
2021/04/21 01:22:10;;;;;;;5.00;4.50;;;13.20;99.90;;;;;;5012711;28;20397;-90
2021/04/21 01:25:10;;;;;;;6.80;4.60;;;12.80;99.90;;;;;;5012326;28;20038;-90
2021/04/21 01:27:51;;;;;;;4.93;4.05;;;12.90;99.90;;;;;;5012261;28;20168;-90
2021/04/21 01:30:20;;;;;;;7.13;4.50;;;12.90;99.90;;;;;;5012355;28;20030;-89
2021/04/21 01:32:50;;;;;;;5.18;4.68;;;13.00;99.90;;;;;;5012972;28;20037;-90
2021/04/21 01:35:20;;;;;;;5.00;4.30;;;13.00;99.90;;;;;;5016042;28;20429;-90
2021/04/21 01:37:48;;;;;;;4.75;4.25;;;13.30;99.90;;;;;;5013091;28;20057;-90
2021/04/21 01:40:20;;;;;;;8.82;4.70;;;13.40;99.90;;;;;;5012838;28;20073;-89
2021/04/21 01:42:51;;;;;;;6.30;4.60;;;13.50;99.90;;;;;;5010541;28;20068;-90
2021/04/21 01:45:29;;;;;;;5.75;4.47;;;13.20;99.90;;;;;;5011145;28;20059;-89
2021/04/21 01:48:01;;;;;;;5.78;4.38;;;12.80;99.90;;;;;;4995751;28;20120;-90
2021/04/21 01:50:27;;;;;;;4.90;4.40;;;12.90;99.90;;;;;;5014761;28;20076;-90
2021/04/21 01:52:58;;;;;;;6.57;4.38;;;12.60;99.90;;;;;;5011655;28;20030;-90
2021/04/21 01:55:26;;;;;;;5.13;4.63;;;12.60;99.90;;;;;;5009681;28;20061;-90
2021/04/21 01:57:56;;;;;;;4.70;3.97;;;12.70;99.90;;;;;;5012208;28;20061;-90
2021/04/21 02:00:34;;;;;;;7.60;4.22;;;13.00;99.90;;;;;;5011589;28;20037;-89
2021/04/21 02:03:32;;;;;;;6.68;4.22;;;12.70;99.90;;;;;;5011530;28;20026;-89
2021/04/21 02:06:22;;;;;;;5.05;4.38;;;12.70;99.90;;;;;;4997876;28;20274;-90
2021/04/21 02:09:07;;;;;;;5.13;4.63;;;12.80;99.90;;;;;;4995990;28;20491;-89
2021/04/21 02:11:35;;;;;;;4.70;4.28;;;12.80;99.90;;;;;;5009347;28;20406;-89
2021/04/21 02:14:22;;;;;;;7.40;4.80;;;12.80;99.90;;;;;;5011834;28;20018;-90
2021/04/21 02:16:56;;;;;;;5.32;4.50;;;12.80;99.90;;;;;;5011347;28;20406;-89
2021/04/21 02:19:38;;;;;;;6.70;4.63;;;12.80;99.90;;;;;;5008536;28;20394;-90
2021/04/21 02:22:28;;;;;;;6.28;4.53;;;12.80;99.90;;;;;;5011210;28;20080;-90
2021/04/21 02:25:38;;;;;;;5.00;4.50;;;12.70;99.90;;;;;;5010168;28;20037;-90
2021/04/21 02:28:38;;;;;;;6.30;5.00;;;12.60;99.90;;;;;;4987789;28;20050;-91
2021/04/21 02:31:22;;;;;;;7.78;5.20;;;12.70;99.90;;;;;;4984947;28;20037;-90
2021/04/21 02:34:07;;;;;;;6.75;5.22;;;12.90;99.90;;;;;;4988714;28;20033;-92
2021/04/21 02:37:01;;;;;;;6.40;4.70;;;12.50;99.90;;;;;;4988476;28;20038;-91
2021/04/21 02:40:04;;;;;;;6.88;5.50;;;12.60;99.90;;;;;;4972483;28;20137;-90
2021/04/21 02:42:58;;;;;;;5.68;5.07;;;12.50;99.90;;;;;;4952988;28;20050;-91
2021/04/21 02:45:33;;;;;;;6.18;5.18;;;12.40;99.90;;;;;;4952661;28;20035;-90
2021/04/21 02:48:11;;;;;;;6.28;5.60;;;12.00;99.90;;;;;;4957298;28;20043;-90
2021/04/21 02:50:49;;;;;;;7.47;5.50;;;12.10;99.90;;;;;;4952941;28;20066;-90
2021/04/21 02:53:40;;;;;;;9.13;6.38;;;12.20;99.90;;;;;;4952864;29;20035;-90
2021/04/21 02:56:17;;;;;;;7.38;5.45;;;12.30;99.90;;;;;;4952851;28;20038;-90
2021/04/21 02:58:57;;;;;;;8.43;5.90;;;12.80;99.90;;;;;;4953530;28;20051;-91
2021/04/21 03:01:50;;;;;;;8.18;6.00;;;12.10;99.90;;;;;;4954229;28;20391;-91
2021/04/21 03:04:21;;;;;;;10.15;5.53;;;12.30;99.90;;;;;;4966419;28;20033;-91
2021/04/21 03:06:50;;;;;;;8.45;6.38;;;12.30;99.90;;;;;;4954294;28;20041;-90
2021/04/21 03:09:32;;;;;;;6.93;6.22;;;12.10;99.90;;;;;;4952269;28;20026;-90
2021/04/21 03:11:59;;;;;;;7.45;6.32;;;12.40;99.90;;;;;;4954844;28;20047;-91
2021/04/21 03:14:29;;;;;;;9.40;6.90;;;12.40;99.90;;;;;;4970803;28;20027;-91
2021/04/21 03:16:56;;;;;;;15.82;8.13;;;12.10;99.90;;;;;;4976659;28;20499;-91
2021/04/21 03:19:28;;;;;;;8.88;6.20;;;12.00;99.90;;;;;;5018640;28;20025;-91
2021/04/21 03:21:59;;;;;;;8.32;6.75;;;12.10;99.90;;;;;;5012903;28;20023;-90
2021/04/21 03:24:28;;;;;;;8.55;6.32;;;12.50;99.90;;;;;;5013239;28;20030;-90
2021/04/21 03:26:59;;;;;;;7.20;5.88;;;11.90;99.90;;;;;;5014717;28;22546;-91
2021/04/21 03:29:30;;;;;;;8.70;6.72;;;11.90;99.90;;;;;;5014473;28;20022;-90
2021/04/21 03:32:00;;;;;;;7.40;6.65;;;12.30;99.90;;;;;;5021582;28;20516;-90
2021/04/21 03:34:27;;;;;;;9.02;6.35;;;12.00;99.90;;;;;;5017013;28;20037;-91
2021/04/21 03:36:53;;;;;;;8.43;6.50;;;12.50;99.90;;;;;;5014465;28;20531;-91
2021/04/21 03:39:20;;;;;;;8.07;6.65;;;12.00;99.90;;;;;;5014304;28;20252;-90
2021/04/21 03:41:45;;;;;;;7.95;7.05;;;12.10;99.90;;;;;;5015165;28;20026;-90
2021/04/21 03:44:12;;;;;;;12.32;7.57;;;11.70;99.90;;;;;;5015999;28;20109;-90
2021/04/21 03:46:39;;;;;;;9.13;7.40;;;11.70;99.90;;;;;;5017354;28;20072;-89
2021/04/21 03:49:08;;;;;;;8.57;7.55;;;12.00;99.90;;;;;;5018401;28;20504;-90
2021/04/21 03:51:35;;;;;;;9.45;7.53;;;12.00;99.90;;;;;;5014611;28;20026;-90
2021/04/21 03:54:03;;;;;;;8.88;7.68;;;11.70;99.90;;;;;;5013796;28;20030;-90
2021/04/21 03:56:32;;;;;;;9.80;7.20;;;11.70;99.90;;;;;;5014619;28;20112;-91
2021/04/21 03:58:59;;;;;;;9.80;7.40;;;11.60;99.90;;;;;;5015392;28;20096;-90
2021/04/21 04:01:26;;;;;;;8.93;7.40;;;11.60;99.90;;;;;;5019952;28;20096;-90
2021/04/21 04:03:58;;;;;;;8.52;7.43;;;11.70;99.90;;;;;;5016268;28;20018;-90
2021/04/21 04:06:33;;;;;;;8.77;7.57;;;11.60;99.90;;;;;;5013851;28;20076;-91
2021/04/21 04:09:04;;;;;;;9.75;7.40;;;11.50;99.90;;;;;;5012953;28;20030;-90
2021/04/21 04:11:47;;;;;;;10.25;7.43;;;11.60;99.90;;;;;;5014393;28;20053;-90
2021/04/21 04:14:35;;;;;;;8.77;7.63;;;11.40;99.90;;;;;;5016570;28;20037;-90
2021/04/21 04:17:03;;;;;;;8.45;7.65;;;11.60;99.90;;;;;;5012792;28;20080;-89
2021/04/21 04:19:33;;;;;;;8.73;7.78;;;11.70;99.90;;;;;;5011500;28;20045;-90
2021/04/21 04:22:06;;;;;;;8.95;8.05;;;11.70;99.90;;;;;;5013755;28;20088;-90
2021/04/21 04:24:58;;;;;;;10.52;8.10;;;12.10;99.90;;;;;;5013757;28;20121;-90
2021/04/21 04:27:26;;;;;;;9.82;7.50;;;11.80;99.90;;;;;;5009272;28;20052;-90
2021/04/21 04:29:54;;;;;;;9.60;8.60;;;12.30;99.90;;;;;;5013051;28;20081;-90
2021/04/21 04:32:21;;;;;;;9.30;8.40;;;11.80;99.90;;;;;;5018842;28;20031;-90
2021/04/21 04:34:49;;;;;;;8.80;7.90;;;12.00;99.90;;;;;;5013675;28;20044;-91
2021/04/21 04:37:19;;;;;;;8.93;7.93;;;11.70;99.90;;;;;;5013744;28;20018;-91
2021/04/21 04:39:45;;;;;;;10.00;8.13;;;11.70;99.90;;;;;;5013978;28;20021;-90
2021/04/21 04:42:12;;;;;;;9.13;8.23;;;11.60;99.90;;;;;;5012843;28;20516;-90
2021/04/21 04:44:42;;;;;;;8.50;7.60;;;11.70;99.90;;;;;;5012920;28;20030;-91
2021/04/21 04:47:22;;;;;;;8.63;7.78;;;12.00;99.90;;;;;;5015270;28;20044;-90
2021/04/21 04:50:11;;;;;;;9.93;7.93;;;11.60;99.90;;;;;;5014969;28;20022;-90
2021/04/21 04:52:39;;;;;;;9.50;8.00;;;11.70;99.90;;;;;;5012917;28;20045;-90
2021/04/21 04:55:08;;;;;;;11.70;7.50;;;11.80;99.90;;;;;;5011778;28;20426;-90
2021/04/21 04:57:38;;;;;;;10.30;7.50;;;11.60;99.90;;;;;;5012461;28;20045;-91
2021/04/21 05:00:07;;;;;;;10.35;7.40;;;12.10;99.90;;;;;;5011811;28;20037;-90
2021/04/21 05:02:37;;;;;;;9.07;7.75;;;11.60;99.90;;;;;;5014870;28;20446;-90
2021/04/21 05:05:07;;;;;;;8.93;7.70;;;11.60;99.90;;;;;;5013356;28;20479;-90
2021/04/21 05:07:46;;;;;;;8.75;7.82;;;11.60;99.90;;;;;;5013708;28;20026;-89
2021/04/21 05:11:01;;;;;;;8.70;7.80;;;11.80;99.90;;;;;;5013414;28;20690;-91
2021/04/21 05:13:33;;;;;;;10.35;8.00;;;11.50;99.90;;;;;;4960113;28;20459;-90
2021/04/21 05:16:10;;;;;;;11.35;8.10;;;11.60;99.90;;;;;;4971393;28;20538;-91
2021/04/21 05:19:03;;;;;;;8.55;7.65;;;11.50;99.90;;;;;;4973120;28;20101;-90
2021/04/21 05:22:10;;;;;;;9.15;7.72;;;11.50;99.90;;;;;;4972316;28;20562;-90
2021/04/21 05:25:04;;;;;;;9.98;7.78;;;11.60;99.90;;;;;;4971679;28;20046;-90
2021/04/21 05:27:38;;;;;;;11.57;7.50;;;11.70;99.90;;;;;;4909936;29;20044;-90
2021/04/21 05:30:29;;;;;;;8.00;7.05;;;11.80;99.90;;;;;;4895302;29;20524;-90
2021/04/21 05:33:16;;;;;;;10.20;6.82;;;11.80;99.90;;;;;;4883208;29;20096;-90
2021/04/21 05:36:29;;;;;;;8.40;7.50;;;11.90;99.90;;;;;;4913474;29;20032;-90
2021/04/21 05:39:04;;;;;;;9.73;7.55;;;12.00;99.90;;;;;;4881031;29;20053;-90
2021/04/21 05:42:01;;;;;;;9.90;7.10;;;12.10;99.90;;;;;;4898474;29;20033;-90
2021/04/21 05:45:13;;;;;;;10.80;7.25;;;12.00;99.90;;;;;;4907827;29;20126;-90
2021/04/21 05:48:09;;;;;;;10.18;8.43;;;12.00;99.90;;;;;;4909987;29;20040;-90
2021/04/21 05:50:44;;;;;;;9.05;8.15;;;12.20;99.90;;;;;;4941560;28;20047;-90
2021/04/21 05:53:36;;;;;;;9.80;8.63;;;12.30;99.90;;;;;;4953365;29;20495;-89
2021/04/21 05:56:27;;;;;;;12.80;10.77;;;12.20;99.90;;;;;;4951242;29;20040;-90
2021/04/21 05:59:21;;;;;;;16.50;13.05;;;12.30;99.90;;;;;;4945868;29;20408;-88
2021/04/21 06:01:47;;;;;;;16.10;13.52;;;12.40;99.90;;;;;;4952539;28;20031;-88
2021/04/21 06:04:16;;;;;;;17.95;14.05;;;12.40;99.90;;;;;;4988689;28;20048;-89
2021/04/21 06:06:41;;;;;;;12.93;11.23;;;12.40;99.90;;;;;;5012915;28;20456;-89
2021/04/21 06:09:09;;;;;;;13.57;10.27;;;12.50;99.90;;;;;;5011025;28;20108;-91
2021/04/21 06:11:36;;;;;;;12.38;9.35;;;12.60;99.90;;;;;;5011457;28;20034;-89
2021/04/21 06:14:06;;;;;;;10.52;9.40;;;12.80;99.90;;;;;;5011705;28;20477;-90
2021/04/21 06:16:34;;;;;;;11.68;9.85;;;12.80;99.90;;;;;;5011369;28;20030;-91
2021/04/21 06:19:09;;;;;;;12.65;9.02;;;13.00;99.90;;;;;;5011413;28;20597;-89
2021/04/21 06:21:38;;;;;;;11.98;8.90;;;12.80;99.90;;;;;;5017656;28;20056;-91
2021/04/21 06:24:18;;;;;;;10.15;9.15;;;13.30;99.90;;;;;;5010895;28;20153;-90
2021/04/21 06:26:44;;;;;;;12.05;8.07;;;13.00;99.90;;;;;;5011454;28;20038;-91
2021/04/21 06:29:10;;;;;;;10.13;8.35;;;13.10;99.90;;;;;;5012921;28;20046;-90
2021/04/21 06:31:49;;;;;;;9.60;8.43;;;13.20;99.90;;;;;;5010875;28;20038;-90
2021/04/21 06:34:15;;;;;;;9.25;7.93;;;13.30;99.90;;;;;;5010981;28;20524;-90
2021/04/21 06:36:50;;;;;;;11.20;8.77;;;13.40;99.90;;;;;;5010202;28;20486;-90
2021/04/21 06:39:20;;;;;;;11.23;9.52;;;13.10;99.90;;;;;;5013373;28;20612;-90
2021/04/21 06:41:53;;;;;;;10.57;8.60;;;13.90;99.90;;;;;;5009247;28;20033;-90
2021/04/21 06:44:42;;;;;;;10.48;8.50;;;13.50;99.90;;;;;;5009156;28;20022;-90
2021/04/21 06:47:09;;;;;;;13.52;8.60;;;13.70;99.90;;;;;;5011697;28;20038;-91
2021/04/21 06:49:34;;;;;;;10.43;7.93;;;14.00;99.90;;;;;;5010630;28;20049;-90
2021/04/21 06:52:14;;;;;;;9.90;8.02;;;14.00;99.90;;;;;;5008665;28;20026;-90
2021/04/21 06:54:40;;;;;;;10.07;8.30;;;13.90;99.90;;;;;;5002769;28;20375;-90
2021/04/21 06:57:06;;;;;;;10.45;8.20;;;14.20;99.90;;;;;;5011152;28;20038;-91
2021/04/21 06:59:32;;;;;;;9.20;7.60;;;14.30;99.90;;;;;;5011215;28;20497;-90
2021/04/21 07:01:57;;;;;;;9.93;7.95;;;14.80;99.90;;;;;;5012452;28;20025;-91
2021/04/21 07:04:23;;;;;;;9.73;7.68;;;14.90;99.90;;;;;;5010551;28;20127;-90
2021/04/21 07:06:50;;;;;;;9.32;7.93;;;14.60;99.90;;;;;;5007593;28;20030;-91
2021/04/21 07:09:20;;;;;;;8.85;7.95;;;14.60;99.90;;;;;;4997987;28;20026;-91
2021/04/21 07:11:55;;;;;;;9.52;7.82;;;14.70;99.90;;;;;;5010581;28;20034;-91
2021/04/21 07:14:21;;;;;;;8.90;7.55;;;15.20;99.90;;;;;;5008741;28;20014;-90
2021/04/21 07:16:54;;;;;;;9.38;6.07;;;15.10;99.90;;;;;;5011974;28;20030;-90
2021/04/21 07:19:22;;;;;;;7.57;6.85;;;15.10;99.90;;;;;;5010337;28;20049;-90
2021/04/21 07:21:48;;;;;;;8.32;6.90;;;15.30;99.90;;;;;;5009632;28;20026;-91
2021/04/21 07:24:17;;;;;;;8.52;6.75;;;15.50;99.90;;;;;;5021656;28;20029;-85
2021/04/21 07:26:45;;;;;;;7.40;6.15;;;15.00;99.90;;;;;;5010282;28;20038;-89
2021/04/21 07:29:23;;;;;;;7.47;5.60;;;15.10;99.90;;;;;;5012334;28;20037;-89
2021/04/21 07:31:50;;;;;;;5.85;5.10;;;15.00;99.90;;;;;;5011324;28;20041;-89
2021/04/21 07:34:30;;;;;;;8.13;5.93;;;15.10;99.90;;;;;;5010139;28;20030;-89
2021/04/21 07:36:56;;;;;;;7.82;6.00;;;15.40;99.90;;;;;;5009586;28;20746;-89
2021/04/21 07:39:31;;;;;;;5.80;5.20;;;15.70;99.90;;;;;;5010769;28;20442;-89
2021/04/21 07:41:57;;;;;;;5.95;5.35;;;15.30;99.90;;;;;;4996152;28;20161;-89
2021/04/21 07:44:37;;;;;;;7.18;5.60;;;15.50;99.90;;;;;;5011694;28;20065;-89
2021/04/21 07:47:06;;;;;;;5.60;5.10;;;15.70;99.90;;;;;;5010989;28;20038;-88
2021/04/21 07:49:33;;;;;;;6.18;4.53;;;16.10;99.90;;;;;;5010021;28;20549;-87
2021/04/21 07:51:58;;;;;;;7.38;4.82;;;16.40;99.90;;;;;;5011524;28;20120;-88
2021/04/21 07:54:26;;;;;;;5.50;5.00;;;16.50;99.90;;;;;;5008615;28;20116;-86
2021/04/21 07:57:13;;;;;;;7.25;4.82;;;16.80;99.90;;;;;;5009725;28;20033;-88
2021/04/21 07:59:41;;;;;;;6.43;5.75;;;17.10;99.90;;;;;;4994868;28;20061;-87
2021/04/21 08:02:14;;;;;;;6.70;5.40;;;16.80;99.90;;;;;;5011405;28;20568;-87
2021/04/21 08:05:00;;;;;;;7.07;5.13;;;16.60;99.90;;;;;;5011300;28;20022;-85
2021/04/21 08:07:34;;;;;;;7.43;5.45;;;16.70;99.90;;;;;;5012207;28;20048;-86
2021/04/21 08:10:01;;;;;;;5.30;4.80;;;17.00;99.90;;;;;;5012466;28;20018;-85
2021/04/21 08:12:29;;;;;;;5.57;4.63;;;16.90;99.90;;;;;;5011889;28;20049;-86
2021/04/21 08:15:07;;;;;;;7.60;4.97;;;16.90;99.90;;;;;;5012458;28;20109;-86
2021/04/21 08:17:56;;;;;;;5.40;4.85;;;17.40;99.90;;;;;;5013307;28;20049;-84
2021/04/21 08:20:23;;;;;;;5.68;5.00;;;17.50;99.90;;;;;;5011317;28;20026;-88
2021/04/21 08:23:00;;;;;;;6.10;4.88;;;17.40;99.90;;;;;;5011281;28;20034;-88
2021/04/21 08:25:26;;;;;;;4.38;3.97;;;17.50;99.90;;;;;;5012895;28;20037;-88
2021/04/21 08:27:52;;;;;;;5.20;4.70;;;17.20;99.90;;;;;;5012197;28;20053;-87
2021/04/21 08:30:19;;;;;;;5.55;4.70;;;17.40;99.90;;;;;;5012418;28;20025;-85
2021/04/21 08:32:45;;;;;;;5.38;4.40;;;17.60;99.90;;;;;;5011819;28;20093;-85
2021/04/21 08:35:12;;;;;;;6.05;4.80;;;18.20;99.90;;;;;;5014111;28;20214;-87
2021/04/21 08:37:39;;;;;;;5.57;4.43;;;17.80;99.90;;;;;;5010318;28;20034;-85
2021/04/21 08:40:05;;;;;;;7.45;4.45;;;17.80;99.90;;;;;;5011228;28;20022;-86
2021/04/21 08:42:32;;;;;;;6.82;6.10;;;17.90;99.90;;;;;;5011642;28;20034;-88
2021/04/21 08:44:58;;;;;;;5.60;4.93;;;18.00;99.90;;;;;;5013259;28;20029;-87
2021/04/21 08:47:25;;;;;;;6.80;5.00;;;18.10;99.90;;;;;;5017124;28;20047;-87
2021/04/21 08:49:54;;;;;;;5.55;4.95;;;18.10;99.90;;;;;;5012138;28;20018;-87
2021/04/21 08:52:22;;;;;;;5.75;5.15;;;18.00;99.90;;;;;;5011853;28;20050;-87
2021/04/21 08:54:51;;;;;;;274.90;31.23;;;18.20;99.90;;;;;;5017714;28;20033;-87
2021/04/21 08:57:17;;;;;;;6.43;4.90;;;18.80;99.90;;;;;;5012305;28;20860;-89
2021/04/21 08:59:43;;;;;;;75.63;12.38;;;18.30;99.90;;;;;;5011797;28;20038;-90
2021/04/21 09:02:11;;;;;;;8.70;5.15;;;18.20;99.90;;;;;;5013254;28;20105;-90
2021/04/21 09:04:37;;;;;;;6.72;4.70;;;18.70;99.90;;;;;;5011776;28;20034;-89
2021/04/21 09:07:04;;;;;;;5.57;5.00;;;18.90;99.90;;;;;;5012541;28;20037;-90
2021/04/21 09:09:32;;;;;;;5.38;4.80;;;17.60;99.90;;;;;;5014017;28;20018;-89
2021/04/21 09:12:00;;;;;;;6.40;4.40;;;17.80;99.90;;;;;;5012575;28;20029;-90
2021/04/21 09:14:27;;;;;;;4.38;3.97;;;18.70;99.90;;;;;;5012876;28;20363;-90
2021/04/21 09:16:52;;;;;;;44.53;8.82;;;18.80;99.90;;;;;;5013075;28;20046;-90
2021/04/21 09:19:18;;;;;;;6.95;4.80;;;18.60;99.90;;;;;;5012229;28;20050;-91
2021/04/21 09:21:44;;;;;;;5.60;5.00;;;18.60;99.90;;;;;;5012001;28;20041;-89
2021/04/21 09:24:37;;;;;;;10.57;5.32;;;18.80;99.90;;;;;;5013604;28;20508;-89
2021/04/21 09:27:23;;;;;;;8.60;4.65;;;19.10;99.90;;;;;;4998018;28;20041;-90
2021/04/21 09:29:48;;;;;;;5.00;4.40;;;19.40;99.90;;;;;;4997110;28;20513;-90
2021/04/21 09:32:14;;;;;;;7.28;4.80;;;19.40;99.90;;;;;;5015004;28;20040;-91
2021/04/21 09:34:54;;;;;;;5.45;4.45;;;19.30;99.90;;;;;;5012447;28;20037;-88
2021/04/21 09:37:26;;;;;;;7.78;4.75;;;19.40;99.90;;;;;;5010568;28;20129;-87
2021/04/21 09:39:52;;;;;;;4.93;4.25;;;19.10;99.90;;;;;;5006751;28;20056;-86
2021/04/21 09:42:25;;;;;;;4.85;4.30;;;19.00;99.90;;;;;;5010715;28;20053;-87
2021/04/21 09:44:52;;;;;;;7.05;4.28;;;18.90;99.90;;;;;;4995817;28;20560;-87
2021/04/21 09:47:19;;;;;;;5.95;4.32;;;19.20;99.90;;;;;;5012262;28;20042;-87
2021/04/21 09:49:45;;;;;;;7.20;4.18;;;19.70;99.90;;;;;;5011210;28;20398;-89
2021/04/21 09:52:13;;;;;;;4.80;4.40;;;19.80;99.90;;;;;;5010080;28;20083;-88
2021/04/21 09:54:46;;;;;;;5.38;4.18;;;19.90;99.90;;;;;;5013193;28;20026;-88
2021/04/21 09:57:23;;;;;;;67.40;9.55;;;20.00;99.90;;;;;;5011105;28;20021;-88
2021/04/21 09:59:57;;;;;;;8.75;4.90;;;19.60;99.90;;;;;;4994289;28;20030;-88
2021/04/21 10:02:38;;;;;;;6.20;4.22;;;19.20;99.90;;;;;;5009699;28;20116;-88
2021/04/21 10:05:28;;;;;;;11.65;4.10;;;18.80;99.90;;;;;;5011375;28;20030;-87
2021/04/21 10:08:23;;;;;;;4.90;3.78;;;18.50;99.90;;;;;;5011828;28;20035;-89
2021/04/21 10:11:09;;;;;;;4.05;3.40;;;18.50;99.90;;;;;;5009903;28;20053;-89
2021/04/21 10:13:41;;;;;;;8.10;4.10;;;18.50;99.90;;;;;;5010675;28;20359;-88
2021/04/21 10:16:09;;;;;;;4.00;3.60;;;18.20;99.90;;;;;;5009738;28;20033;-88
2021/04/21 10:18:36;;;;;;;4.25;3.63;;;17.70;99.90;;;;;;5009530;28;20053;-87
2021/04/21 10:21:03;;;;;;;4.35;3.70;;;17.70;99.90;;;;;;5013217;28;20022;-88
2021/04/21 10:23:29;;;;;;;4.03;3.60;;;17.30;99.90;;;;;;5015960;28;20033;-91
2021/04/21 10:25:59;;;;;;;4.40;3.58;;;17.40;99.90;;;;;;5011454;28;20088;-91
2021/04/21 10:28:26;;;;;;;4.10;3.60;;;17.50;99.90;;;;;;5011240;28;20026;-93
2021/04/21 10:30:52;;;;;;;3.85;3.42;;;17.70;99.90;;;;;;5010574;28;20053;-91
2021/04/21 10:33:19;;;;;;;3.50;3.20;;;17.50;99.90;;;;;;5010383;28;20022;-92
2021/04/21 10:35:44;;;;;;;4.32;3.40;;;17.60;99.90;;;;;;5012561;28;20371;-93
2021/04/21 10:38:15;;;;;;;3.67;3.30;;;17.60;99.90;;;;;;5014184;28;20018;-87
2021/04/21 10:40:40;;;;;;;4.45;3.63;;;17.80;99.90;;;;;;5008119;28;20034;-91
2021/04/21 10:43:06;;;;;;;4.85;3.50;;;17.60;99.90;;;;;;5010241;28;20080;-93
2021/04/21 10:45:47;;;;;;;4.35;3.65;;;17.70;99.90;;;;;;5010115;28;20084;-92
2021/04/21 10:48:39;;;;;;;3.92;3.53;;;17.60;99.90;;;;;;5011107;28;20030;-94
2021/04/21 10:51:31;;;;;;;10.00;7.43;;;17.60;99.90;;;;;;5012841;28;20034;-92
2021/04/21 10:54:00;;;;;;;4.55;3.97;;;17.50;99.90;;;;;;5020691;28;20033;-93
2021/04/21 10:56:26;;;;;;;3.58;3.28;;;17.50;99.90;;;;;;5010188;28;20026;-93
2021/04/21 10:58:57;;;;;;;4.38;3.55;;;17.60;99.90;;;;;;5011351;28;20062;-92
2021/04/21 11:01:36;;;;;;;4.10;3.50;;;18.00;99.90;;;;;;5010855;28;20022;-92
2021/04/21 11:04:04;;;;;;;5.00;3.78;;;18.50;99.90;;;;;;5011172;28;20401;-94
2021/04/21 11:06:39;;;;;;;3.80;3.47;;;18.10;99.90;;;;;;5016567;28;20033;-89
2021/04/21 11:09:15;;;;;;;4.70;3.50;;;18.50;99.90;;;;;;5007918;28;20073;-93
2021/04/21 11:11:46;;;;;;;4.55;4.00;;;18.80;99.90;;;;;;5010315;28;20034;-93
2021/04/21 11:14:34;;;;;;;4.47;4.07;;;18.90;99.90;;;;;;5012445;28;20034;-91
2021/04/21 11:17:05;;;;;;;6.15;4.40;;;18.60;99.90;;;;;;5022439;28;20372;-91
2021/04/21 11:19:38;;;;;;;4.72;4.15;;;18.70;99.90;;;;;;5014441;28;20041;-88
2021/04/21 11:22:25;;;;;;;4.63;4.10;;;19.20;99.90;;;;;;5018386;28;20033;-89
2021/04/21 11:25:21;;;;;;;5.35;4.40;;;19.30;99.90;;;;;;5009168;28;20502;-91
2021/04/21 11:27:48;;;;;;;6.88;4.50;;;20.70;99.90;;;;;;5002964;28;20414;-90
2021/04/21 11:30:32;;;;;;;6.22;4.10;;;21.20;99.90;;;;;;5010468;28;20083;-89
2021/04/21 11:32:57;;;;;;;4.32;4.00;;;21.30;99.90;;;;;;4993612;28;20027;-90
2021/04/21 11:35:28;;;;;;;8.88;4.38;;;22.40;99.90;;;;;;5013109;28;20390;-89
2021/04/21 11:37:53;;;;;;;4.88;4.38;;;23.50;99.90;;;;;;5012418;28;20096;-89
2021/04/21 11:40:30;;;;;;;4.18;3.67;;;23.90;99.90;;;;;;5014610;28;20057;-90
2021/04/21 11:43:15;;;;;;;5.85;3.83;;;23.00;99.90;;;;;;5013980;28;20654;-92
2021/04/21 11:45:42;;;;;;;4.80;4.35;;;21.50;99.90;;;;;;5013837;28;20037;-92
2021/04/21 11:48:09;;;;;;;4.20;3.83;;;20.20;99.90;;;;;;5014652;28;20176;-92
2021/04/21 11:50:36;;;;;;;5.40;4.30;;;19.80;99.90;;;;;;5015156;28;20375;-91
2021/04/21 11:53:09;;;;;;;4.30;3.90;;;19.20;99.90;;;;;;5010035;28;20156;-92
2021/04/21 11:55:57;;;;;;;4.13;3.72;;;19.30;99.90;;;;;;5013832;28;20402;-92
2021/04/21 11:58:24;;;;;;;4.72;4.00;;;19.20;99.90;;;;;;5013888;28;20050;-92
2021/04/21 12:00:55;;;;;;;4.90;4.07;;;19.10;99.90;;;;;;5012970;28;20033;-92
2021/04/21 12:03:33;;;;;;;5.38;4.80;;;19.30;99.90;;;;;;5015684;28;20022;-92
2021/04/21 12:06:16;;;;;;;5.25;3.80;;;19.80;99.90;;;;;;5009973;28;20038;-93
2021/04/21 12:08:47;;;;;;;4.63;4.10;;;20.30;99.90;;;;;;5014211;28;20121;-92
2021/04/21 12:11:13;;;;;;;4.53;4.10;;;20.20;99.90;;;;;;5014341;28;20409;-92
2021/04/21 12:13:41;;;;;;;4.47;3.67;;;20.00;99.90;;;;;;5013027;28;20061;-91
2021/04/21 12:16:09;;;;;;;4.40;3.78;;;19.80;99.90;;;;;;5013703;28;20500;-92
2021/04/21 12:18:37;;;;;;;4.05;3.65;;;19.90;99.90;;;;;;5016421;28;20415;-92
2021/04/21 12:21:09;;;;;;;4.43;4.03;;;20.10;99.90;;;;;;5013577;28;20486;-92
2021/04/21 12:23:36;;;;;;;5.68;3.85;;;19.80;99.90;;;;;;5014265;28;20318;-92
2021/04/21 12:26:05;;;;;;;5.38;3.90;;;19.50;99.90;;;;;;5011783;28;20044;-92
2021/04/21 12:28:45;;;;;;;5.55;4.20;;;19.30;99.90;;;;;;5013782;28;20393;-92
2021/04/21 12:31:10;;;;;;;5.63;4.03;;;19.20;99.90;;;;;;5013573;28;20129;-92
2021/04/21 12:33:36;;;;;;;6.85;4.50;;;19.30;99.90;;;;;;5012648;28;20522;-92
2021/04/21 12:36:02;;;;;;;5.78;4.05;;;19.20;99.90;;;;;;5025734;28;20053;-91
2021/04/21 12:38:32;;;;;;;8.02;4.32;;;19.30;99.90;;;;;;5015190;28;20482;-92
2021/04/21 12:41:00;;;;;;;4.47;4.00;;;19.30;99.90;;;;;;5012561;28;20028;-91
2021/04/21 12:43:29;;;;;;;7.38;4.97;;;19.60;99.90;;;;;;5012960;28;20477;-91
2021/04/21 12:46:09;;;;;;;5.18;4.18;;;19.30;99.90;;;;;;5012983;28;20022;-92
2021/04/21 12:48:44;;;;;;;4.97;4.20;;;20.00;99.90;;;;;;5013748;28;20478;-92
2021/04/21 12:51:30;;;;;;;5.00;4.53;;;19.80;99.90;;;;;;5011856;28;20164;-92
2021/04/21 12:53:57;;;;;;;4.97;4.47;;;19.70;99.90;;;;;;4996652;28;20021;-91
2021/04/21 12:56:22;;;;;;;4.90;4.20;;;19.20;99.90;;;;;;5014991;28;20025;-92
2021/04/21 12:58:48;;;;;;;4.72;4.25;;;19.30;99.90;;;;;;5013584;28;20057;-92
2021/04/21 13:01:22;;;;;;;6.30;4.45;;;19.20;99.90;;;;;;5014021;28;20529;-92
2021/04/21 13:04:04;;;;;;;5.72;4.20;;;19.10;99.90;;;;;;5012912;28;20053;-92
2021/04/21 13:06:44;;;;;;;5.55;4.47;;;18.80;99.90;;;;;;5012523;28;20192;-92
2021/04/21 13:09:13;;;;;;;4.97;3.95;;;18.80;99.90;;;;;;5012280;28;20517;-92
2021/04/21 13:11:40;;;;;;;5.50;4.20;;;19.10;99.90;;;;;;5012668;28;20379;-92
2021/04/21 13:14:06;;;;;;;11.05;5.13;;;19.40;99.90;;;;;;5015197;28;20069;-92
2021/04/21 13:16:37;;;;;;;4.22;3.83;;;19.60;99.90;;;;;;5014048;28;20128;-92
2021/04/21 13:19:23;;;;;;;4.97;4.43;;;19.40;99.90;;;;;;5009751;28;20022;-91